createdAt,value
2022-10-14T00:00:05.386Z,79.11
2022-10-14T00:03:03.181Z,79.43
2022-10-14T00:05:34.789Z,79.81
2022-10-14T00:08:06.423Z,80.08
2022-10-14T00:10:41.149Z,79.91
2022-10-14T00:13:12.841Z,79.90
2022-10-14T00:15:44.500Z,79.70
2022-10-14T00:18:16.186Z,79.50
2022-10-14T00:20:57.429Z,79.09
2022-10-14T00:23:29.447Z,78.93
2022-10-14T00:26:01.096Z,78.78
2022-10-14T00:28:35.436Z,79.29
2022-10-14T00:31:07.581Z,79.55
2022-10-14T00:33:40.524Z,79.80
2022-10-14T00:36:14.928Z,80.29
2022-10-14T00:38:47.137Z,80.55
2022-10-14T00:41:22.780Z,80.47
2022-10-14T00:43:58.571Z,80.70
2022-10-14T00:46:32.060Z,80.94
2022-10-14T00:49:10.573Z,81.62
2022-10-14T00:51:45.998Z,81.63
2022-10-14T00:54:22.165Z,81.68
2022-10-14T00:56:55.058Z,80.96
2022-10-14T00:59:27.412Z,80.73
2022-10-14T01:01:59.104Z,81.02
2022-10-14T01:04:30.974Z,81.52
2022-10-14T01:07:09.853Z,81.62
2022-10-14T01:09:48.823Z,82.05
2022-10-14T01:12:29.816Z,82.35
2022-10-14T01:15:09.945Z,82.36
2022-10-14T01:17:53.853Z,82.01
2022-10-14T01:20:49.358Z,81.92
2022-10-14T01:24:12.012Z,81.53
2022-10-14T01:27:11.745Z,81.29
2022-10-14T01:30:09.136Z,81.53
2022-10-14T01:32:59.306Z,82.03
2022-10-14T01:35:40.875Z,82.03
2022-10-14T01:38:18.606Z,82.38
2022-10-14T01:40:56.429Z,82.26
2022-10-14T01:43:32.629Z,82.26
2022-10-14T01:46:07.778Z,82.22
2022-10-14T01:48:43.679Z,81.96
2022-10-14T01:51:19.797Z,81.83
2022-10-14T01:53:55.937Z,81.82
2022-10-14T01:56:34.936Z,83.10
2022-10-14T01:59:11.649Z,82.59
2022-10-14T02:01:43.465Z,82.49
2022-10-14T02:04:19.892Z,82.43
2022-10-14T02:06:59.166Z,82.31
2022-10-14T02:09:42.684Z,81.83
2022-10-14T02:12:27.442Z,81.71
2022-10-14T02:15:09.264Z,82.02
2022-10-14T02:17:50.642Z,81.73
2022-10-14T02:20:27.345Z,81.70
2022-10-14T02:23:05.608Z,81.57
2022-10-14T02:25:41.309Z,81.99
2022-10-14T02:28:18.179Z,82.27
2022-10-14T02:30:56.605Z,82.40
2022-10-14T02:33:34.284Z,82.47
2022-10-14T02:36:08.709Z,82.62
2022-10-14T02:38:41.909Z,83.05
2022-10-14T02:41:19.253Z,83.25
2022-10-14T02:43:50.913Z,83.60
2022-10-14T02:46:22.726Z,83.76
2022-10-14T02:48:54.390Z,84.04
2022-10-14T02:51:26.109Z,84.41
2022-10-14T02:53:58.395Z,83.81
2022-10-14T02:56:31.153Z,83.34
2022-10-14T02:59:04.434Z,83.24
2022-10-14T03:01:37.895Z,83.31
2022-10-14T03:04:10.291Z,83.62
2022-10-14T03:06:42.186Z,84.34
2022-10-14T03:09:14.638Z,84.76
2022-10-14T03:11:46.709Z,85.01
2022-10-14T03:14:20.798Z,84.61
2022-10-14T03:16:52.944Z,84.41
2022-10-14T03:19:27.159Z,84.69
2022-10-14T03:22:00.326Z,84.26
2022-10-14T03:24:32.042Z,83.86
2022-10-14T03:27:26.408Z,83.51
2022-10-14T03:30:01.575Z,83.63
2022-10-14T03:32:33.220Z,83.73
2022-10-14T03:35:24.160Z,84.03
2022-10-14T03:37:59.810Z,83.82
2022-10-14T03:40:34.453Z,83.79
2022-10-14T03:43:06.478Z,83.84
2022-10-14T03:45:46.088Z,83.96
2022-10-14T03:48:18.344Z,84.78
2022-10-14T03:50:51.094Z,85.00
2022-10-14T03:53:24.132Z,85.09
2022-10-14T03:55:56.097Z,84.88
2022-10-14T03:58:27.698Z,84.86
2022-10-14T04:01:04.183Z,85.65
2022-10-14T04:03:41.255Z,85.70
2022-10-14T04:06:13.363Z,85.73
2022-10-14T04:08:45.259Z,85.66
2022-10-14T04:11:26.081Z,86.05
2022-10-14T04:14:01.684Z,85.98
2022-10-14T04:16:34.051Z,85.93
2022-10-14T04:19:14.560Z,85.94
2022-10-14T04:21:46.644Z,85.79
2022-10-14T04:24:20.900Z,85.85
2022-10-14T04:26:57.273Z,86.28
2022-10-14T04:29:39.730Z,86.25
2022-10-14T04:32:17.559Z,86.37
2022-10-14T04:34:49.598Z,86.40
2022-10-14T04:37:23.394Z,86.78
2022-10-14T04:40:05.357Z,86.26
2022-10-14T04:42:37.482Z,86.44
2022-10-14T04:45:11.753Z,86.46
2022-10-14T04:47:48.955Z,86.51
2022-10-14T04:50:22.312Z,86.26
2022-10-14T04:53:14.015Z,86.33
2022-10-14T04:55:58.810Z,86.38
2022-10-14T04:58:30.990Z,86.47
2022-10-14T05:01:02.565Z,86.45
2022-10-14T05:03:40.635Z,86.43
2022-10-14T05:06:12.905Z,86.78
2022-10-14T05:08:47.344Z,87.16
2022-10-14T05:11:19.093Z,87.31
2022-10-14T05:13:57.498Z,87.26
2022-10-14T05:16:29.818Z,87.08
2022-10-14T05:19:01.440Z,87.05
2022-10-14T05:21:33.404Z,87.07
2022-10-14T05:24:18.452Z,87.16
2022-10-14T05:26:51.476Z,86.98
2022-10-14T05:29:23.097Z,87.44
2022-10-14T05:31:55.514Z,88.13
2022-10-14T05:34:47.539Z,88.97
2022-10-14T05:37:26.558Z,88.81
2022-10-14T05:39:59.415Z,88.45
2022-10-14T05:42:31.385Z,87.82
2022-10-14T05:45:03.610Z,87.35
2022-10-14T05:47:36.107Z,87.39
2022-10-14T05:50:16.368Z,87.50
2022-10-14T05:52:49.083Z,87.84
2022-10-14T05:55:24.948Z,87.99
2022-10-14T05:57:59.598Z,87.74
2022-10-14T06:00:35.468Z,88.20
2022-10-14T06:03:11.324Z,88.35
2022-10-14T06:05:43.195Z,88.80
2022-10-14T06:08:15.926Z,89.63
2022-10-14T06:10:49.097Z,89.75
2022-10-14T06:13:20.797Z,89.56
2022-10-14T06:15:52.461Z,88.90
2022-10-14T06:18:24.042Z,88.41
2022-10-14T06:20:56.067Z,87.98
2022-10-14T06:23:28.916Z,87.57
2022-10-14T06:26:04.018Z,87.06
2022-10-14T06:28:35.683Z,86.97
2022-10-14T06:31:07.578Z,86.83
2022-10-14T06:33:39.500Z,86.84
2022-10-14T06:36:12.940Z,86.98
2022-10-14T06:38:44.791Z,87.58
2022-10-14T06:41:16.513Z,86.75
2022-10-14T06:43:48.082Z,86.53
2022-10-14T06:46:20.133Z,86.54
2022-10-14T06:48:52.456Z,86.58
2022-10-14T06:51:24.116Z,86.32
2022-10-14T06:53:55.681Z,86.06
2022-10-14T06:56:27.854Z,85.90
2022-10-14T06:58:59.475Z,85.63
2022-10-14T07:01:31.555Z,85.39
2022-10-14T07:04:04.592Z,85.15
2022-10-14T07:06:37.052Z,84.82
2022-10-14T07:09:08.619Z,84.87
2022-10-14T07:11:40.185Z,84.94
2022-10-14T07:14:11.801Z,84.81
2022-10-14T07:16:45.286Z,84.98
2022-10-14T07:19:17.240Z,84.90
2022-10-14T07:21:49.335Z,84.82
2022-10-14T07:24:20.916Z,85.19
2022-10-14T07:26:53.254Z,85.00
2022-10-14T07:29:25.514Z,85.06
2022-10-14T07:31:57.588Z,84.90
2022-10-14T07:34:29.301Z,85.02
2022-10-14T07:37:00.944Z,85.75
2022-10-14T07:39:33.972Z,86.31
2022-10-14T07:42:04.497Z,85.39
2022-10-14T07:44:37.153Z,85.42
2022-10-14T07:47:08.864Z,85.17
2022-10-14T07:49:40.471Z,86.06
2022-10-14T07:52:12.138Z,86.05
2022-10-14T07:54:43.980Z,86.10
2022-10-14T07:57:16.655Z,85.69
2022-10-14T07:59:48.252Z,85.65
2022-10-14T08:02:20.251Z,85.18
2022-10-14T08:05:04.123Z,85.22
2022-10-14T08:07:44.044Z,84.58
2022-10-14T08:10:16.347Z,84.26
2022-10-14T08:12:48.055Z,84.15
2022-10-14T08:15:19.958Z,83.59
2022-10-14T08:17:52.446Z,83.48
2022-10-14T08:20:24.172Z,83.28
2022-10-14T08:22:56.346Z,83.79
2022-10-14T08:25:28.471Z,83.77
2022-10-14T08:28:00.069Z,83.39
2022-10-14T08:30:31.822Z,84.49
2022-10-14T08:33:03.438Z,84.73
2022-10-14T08:35:35.071Z,85.03
2022-10-14T08:38:06.704Z,84.74
2022-10-14T08:40:57.976Z,83.92
2022-10-14T08:43:34.939Z,83.19
2022-10-14T08:46:12.298Z,83.33
2022-10-14T08:48:45.239Z,83.00
2022-10-14T08:51:20.394Z,82.71
2022-10-14T08:53:56.859Z,82.37
2022-10-14T08:56:28.970Z,81.93
2022-10-14T08:59:07.417Z,82.15
2022-10-14T09:01:49.190Z,81.53
2022-10-14T09:04:21.427Z,81.19
2022-10-14T09:06:55.419Z,80.65
2022-10-14T09:09:31.769Z,80.15
2022-10-14T09:12:07.487Z,79.83
2022-10-14T09:14:44.178Z,79.79
2022-10-14T09:17:21.128Z,79.15
2022-10-14T09:19:58.856Z,78.74
2022-10-14T09:22:30.675Z,78.60
2022-10-14T09:25:02.371Z,77.77
2022-10-14T09:27:34.294Z,77.65
2022-10-14T09:30:10.834Z,77.20
2022-10-14T09:32:45.941Z,77.16
2022-10-14T09:35:25.412Z,76.73
2022-10-14T09:37:57.629Z,76.53
2022-10-14T09:40:33.634Z,76.56
2022-10-14T09:43:14.011Z,76.21
2022-10-14T09:45:56.829Z,74.92
2022-10-14T09:48:37.577Z,73.74
2022-10-14T09:51:12.264Z,72.84
2022-10-14T09:53:49.125Z,71.77
2022-10-14T09:56:31.778Z,70.60
2022-10-14T09:59:05.269Z,70.32
2022-10-14T10:01:41.723Z,70.37
2022-10-14T10:04:28.806Z,70.42
2022-10-14T10:07:02.560Z,70.08
2022-10-14T10:09:35.056Z,69.57
2022-10-14T10:12:25.491Z,69.35
2022-10-14T10:15:03.624Z,69.73
2022-10-14T10:17:40.573Z,69.72
2022-10-14T10:20:28.549Z,69.87
2022-10-14T10:23:21.293Z,69.88
2022-10-14T10:25:53.275Z,70.01
2022-10-14T10:28:32.139Z,70.21
2022-10-14T10:31:19.155Z,70.74
2022-10-14T10:33:58.005Z,70.40
2022-10-14T10:36:35.725Z,70.22
2022-10-14T10:39:17.918Z,70.50
2022-10-14T10:42:04.116Z,70.39
2022-10-14T10:44:53.143Z,70.30
2022-10-14T10:47:37.872Z,70.21
2022-10-14T10:50:37.261Z,70.67
2022-10-14T10:53:23.992Z,69.81
2022-10-14T10:56:07.868Z,69.64
2022-10-14T10:58:54.911Z,69.44
2022-10-14T11:01:38.450Z,69.73
2022-10-14T11:04:23.167Z,69.60
2022-10-14T11:07:22.767Z,69.69
2022-10-14T11:10:26.102Z,69.25
2022-10-14T11:13:02.629Z,69.49
2022-10-14T11:15:43.110Z,69.44
2022-10-14T11:18:25.307Z,69.32
2022-10-14T11:21:10.836Z,69.14
2022-10-14T11:23:59.386Z,68.78
2022-10-14T11:26:56.232Z,68.75
2022-10-14T11:29:56.299Z,68.93
2022-10-14T11:32:36.143Z,68.76
2022-10-14T11:35:26.213Z,68.56
2022-10-14T11:38:15.785Z,68.49
2022-10-14T11:40:56.519Z,68.45
2022-10-14T11:43:42.184Z,68.17
2022-10-14T11:46:17.364Z,68.10
2022-10-14T11:48:52.328Z,68.32
2022-10-14T11:51:33.280Z,69.32
2022-10-14T11:54:14.999Z,69.42
2022-10-14T11:56:51.657Z,69.51
2022-10-14T11:59:34.803Z,69.71
2022-10-14T12:02:20.755Z,69.37
2022-10-14T12:04:59.033Z,69.00
2022-10-14T12:07:35.935Z,69.10
2022-10-14T12:10:20.880Z,69.17
2022-10-14T12:12:53.981Z,69.36
2022-10-14T12:15:28.169Z,69.51
2022-10-14T12:18:02.051Z,69.34
2022-10-14T12:20:44.865Z,69.54
2022-10-14T12:23:28.204Z,69.28
2022-10-14T12:26:05.550Z,69.50
2022-10-14T12:28:41.011Z,69.73
2022-10-14T12:31:38.535Z,69.82
2022-10-14T12:34:31.203Z,69.91
2022-10-14T12:37:27.283Z,70.08
2022-10-14T12:40:23.364Z,69.95
2022-10-14T12:43:13.478Z,70.02
2022-10-14T12:45:58.686Z,70.19
2022-10-14T12:48:34.717Z,69.72
2022-10-14T12:51:16.905Z,69.93
2022-10-14T12:53:58.433Z,69.85
2022-10-14T12:56:45.528Z,69.76
2022-10-14T12:59:28.097Z,69.70
2022-10-14T13:02:05.142Z,69.71
2022-10-14T13:04:37.008Z,69.59
2022-10-14T13:07:41.045Z,69.50
2022-10-14T13:10:50.449Z,69.74
2022-10-14T13:13:56.195Z,69.47
2022-10-14T13:17:09.901Z,68.07
2022-10-14T13:19:47.622Z,67.94
2022-10-14T13:22:39.308Z,67.61
2022-10-14T13:25:20.625Z,67.36
2022-10-14T13:28:13.330Z,67.56
2022-10-14T13:30:57.306Z,68.31
2022-10-14T13:33:37.804Z,68.88
2022-10-14T13:36:17.628Z,68.56
2022-10-14T13:38:56.676Z,68.07
2022-10-14T13:41:31.368Z,67.89
2022-10-14T13:44:03.754Z,68.07
2022-10-14T13:46:40.480Z,68.49
2022-10-14T13:49:18.608Z,68.56
2022-10-14T13:51:53.695Z,68.39
2022-10-14T13:54:26.873Z,68.49
2022-10-14T13:57:47.956Z,68.53
2022-10-14T14:00:39.612Z,68.42
2022-10-14T14:02:55.130Z,68.38
2022-10-14T14:05:36.076Z,68.47
2022-10-14T14:11:18.914Z,68.39
2022-10-14T14:14:00.841Z,68.55
2022-10-14T14:16:36.925Z,68.94
2022-10-14T14:19:18.554Z,69.20
2022-10-14T14:21:50.607Z,69.59
2022-10-14T14:24:29.413Z,68.87
2022-10-14T14:27:02.514Z,69.00
2022-10-14T14:29:35.992Z,68.63
2022-10-14T14:32:14.500Z,68.86
2022-10-14T14:34:49.159Z,68.99
2022-10-14T14:37:48.105Z,68.90
2022-10-14T14:40:22.343Z,69.18
2022-10-14T14:42:57.150Z,69.51
2022-10-14T14:45:32.355Z,70.26
2022-10-14T14:48:07.943Z,70.68
2022-10-14T14:50:43.184Z,70.72
2022-10-14T14:53:18.699Z,70.93
2022-10-14T14:56:03.524Z,71.15
2022-10-14T14:58:40.305Z,71.34
2022-10-14T15:01:23.203Z,71.79
2022-10-14T15:04:12.813Z,71.55
2022-10-14T15:06:57.500Z,71.75
2022-10-14T15:09:38.480Z,71.78
2022-10-14T15:12:17.432Z,71.91
2022-10-14T15:14:51.203Z,71.97
2022-10-14T15:17:34.989Z,72.27
2022-10-14T15:20:30.396Z,72.13
2022-10-14T15:23:03.504Z,72.56
2022-10-14T15:25:35.248Z,72.66
2022-10-14T15:28:27.289Z,72.87
2022-10-14T15:31:03.101Z,73.02
2022-10-14T15:33:37.459Z,73.00
2022-10-14T15:36:13.429Z,73.20
2022-10-14T15:38:45.534Z,73.01
2022-10-14T15:41:17.102Z,73.47
2022-10-14T15:43:49.368Z,73.37
2022-10-14T15:46:35.299Z,73.53
2022-10-14T15:49:15.068Z,73.67
2022-10-14T15:51:46.596Z,73.93
2022-10-14T15:54:19.438Z,74.05
2022-10-14T15:56:51.301Z,74.06
2022-10-14T15:59:23.384Z,74.02
2022-10-14T16:01:56.005Z,74.18
2022-10-14T16:04:28.024Z,74.31
2022-10-14T16:07:00.124Z,74.55
2022-10-14T16:09:32.026Z,74.53
2022-10-14T16:12:05.158Z,74.70
2022-10-14T16:14:36.871Z,74.78
2022-10-14T16:17:09.831Z,74.87
2022-10-14T16:19:44.069Z,74.85
2022-10-14T16:22:17.612Z,75.11
2022-10-14T16:24:49.289Z,75.40
2022-10-14T16:27:21.989Z,75.33
2022-10-14T16:29:53.894Z,75.52
2022-10-14T16:32:26.934Z,75.47
2022-10-14T16:35:00.993Z,75.69
2022-10-14T16:37:32.637Z,75.67
2022-10-14T16:40:04.794Z,76.02
2022-10-14T16:42:36.488Z,76.24
2022-10-14T16:45:09.417Z,76.19
2022-10-14T16:47:41.816Z,76.27
2022-10-14T16:50:14.507Z,77.33
2022-10-14T16:53:06.158Z,77.33
2022-10-14T16:55:39.287Z,77.62
2022-10-14T16:58:10.887Z,77.98
2022-10-14T17:00:43.857Z,78.56
2022-10-14T17:03:16.220Z,78.89
2022-10-14T17:05:56.985Z,78.80
2022-10-14T17:08:29.307Z,78.55
2022-10-14T17:11:01.548Z,78.61
2022-10-14T17:13:33.319Z,78.78
2022-10-14T17:16:06.897Z,79.05
2022-10-14T17:18:39.095Z,79.02
2022-10-14T17:21:13.662Z,79.05
2022-10-14T17:23:46.749Z,79.08
2022-10-14T17:26:20.232Z,79.60
2022-10-14T17:28:51.980Z,79.56
2022-10-14T17:31:24.509Z,79.58
2022-10-14T17:33:56.222Z,79.53
2022-10-14T17:36:30.808Z,79.83
2022-10-14T17:39:02.542Z,80.40
2022-10-14T17:41:34.709Z,80.98
2022-10-14T17:44:06.438Z,81.11
2022-10-14T17:46:38.227Z,81.38
2022-10-14T17:49:10.802Z,81.62
2022-10-14T17:51:43.181Z,82.05
2022-10-14T17:54:15.142Z,82.34
2022-10-14T17:56:49.272Z,82.71
2022-10-14T17:59:21.078Z,82.92
2022-10-14T18:02:08.084Z,83.28
2022-10-14T18:04:39.672Z,83.28
2022-10-14T18:07:12.033Z,83.49
2022-10-14T18:09:44.516Z,83.71
2022-10-14T18:12:16.493Z,84.25
2022-10-14T18:14:49.747Z,84.85
2022-10-14T18:17:22.118Z,84.91
2022-10-14T18:19:54.015Z,84.49
2022-10-14T18:22:25.797Z,84.43
2022-10-14T18:24:57.390Z,83.91
2022-10-14T18:27:29.438Z,83.27
2022-10-14T18:30:01.019Z,82.39
2022-10-14T18:32:32.714Z,82.17
2022-10-14T18:35:05.325Z,82.15
2022-10-14T18:37:35.715Z,81.98
2022-10-14T18:40:09.299Z,82.22
2022-10-14T18:42:41.677Z,82.38
2022-10-14T18:45:13.845Z,82.65
2022-10-14T18:47:47.234Z,83.52
2022-10-14T18:50:18.885Z,83.30
2022-10-14T18:52:51.364Z,83.43
2022-10-14T18:55:23.308Z,83.03
2022-10-14T18:57:55.282Z,83.99
2022-10-14T19:00:27.176Z,83.92
2022-10-14T19:02:59.705Z,84.33
2022-10-14T19:05:35.894Z,84.37
2022-10-14T19:08:07.737Z,84.43
2022-10-14T19:10:40.205Z,84.45
2022-10-14T19:13:12.243Z,84.68
2022-10-14T19:15:46.874Z,84.89
2022-10-14T19:18:22.412Z,85.08
2022-10-14T19:20:57.925Z,85.30
2022-10-14T19:23:29.720Z,84.77
2022-10-14T19:26:04.787Z,84.70
2022-10-14T19:28:36.957Z,84.25
2022-10-14T19:31:10.284Z,84.14
2022-10-14T19:33:44.128Z,84.23
2022-10-14T19:36:19.361Z,84.09
2022-10-14T19:38:58.019Z,84.44
2022-10-14T19:41:32.747Z,84.39
2022-10-14T19:44:04.820Z,84.49
2022-10-14T19:46:36.445Z,84.54
2022-10-14T19:49:08.708Z,84.29
2022-10-14T19:51:41.410Z,83.79
2022-10-14T19:54:12.596Z,83.97
2022-10-14T19:56:47.665Z,84.41
2022-10-14T19:59:19.426Z,84.28
2022-10-14T20:01:51.897Z,84.45
2022-10-14T20:04:26.655Z,84.10
2022-10-14T20:06:59.982Z,83.54
2022-10-14T20:09:31.756Z,83.62
2022-10-14T20:12:05.052Z,83.59
2022-10-14T20:14:37.167Z,83.97
2022-10-14T20:17:09.323Z,84.39
2022-10-14T20:19:41.228Z,85.20
2022-10-14T20:22:13.409Z,85.09
2022-10-14T20:24:45.389Z,84.68
2022-10-14T20:27:18.097Z,84.93
2022-10-14T20:29:48.776Z,85.00
2022-10-14T20:32:20.469Z,85.15
2022-10-14T20:34:53.097Z,85.43
2022-10-14T20:37:27.402Z,85.90
2022-10-14T20:40:00.475Z,85.57
2022-10-14T20:42:33.793Z,85.91
2022-10-14T20:45:07.026Z,85.70
2022-10-14T20:47:38.984Z,85.61
2022-10-14T20:50:12.292Z,85.69
2022-10-14T20:52:44.577Z,85.80
2022-10-14T20:55:16.644Z,85.66
2022-10-14T20:57:48.957Z,85.69
2022-10-14T21:00:22.430Z,85.77
2022-10-14T21:02:54.114Z,86.20
2022-10-14T21:05:25.918Z,85.85
2022-10-14T21:07:57.902Z,85.16
2022-10-14T21:10:30.391Z,85.22
2022-10-14T21:13:02.421Z,85.29
2022-10-14T21:15:34.266Z,85.78
2022-10-14T21:18:07.036Z,85.47
2022-10-14T21:20:37.110Z,85.29
2022-10-14T21:23:08.768Z,85.79
2022-10-14T21:25:40.509Z,85.57
2022-10-14T21:28:12.309Z,85.28
2022-10-14T21:30:44.253Z,85.66
2022-10-14T21:33:15.870Z,85.97
2022-10-14T21:35:47.807Z,87.07
2022-10-14T21:38:19.714Z,88.05
2022-10-14T21:40:51.656Z,87.83
2022-10-14T21:43:23.197Z,88.18
2022-10-14T21:45:54.780Z,88.41
2022-10-14T21:48:26.372Z,88.63
2022-10-14T21:51:05.206Z,88.58
2022-10-14T21:53:37.547Z,88.48
2022-10-14T21:56:10.009Z,87.66
2022-10-14T21:58:42.420Z,87.76
2022-10-14T22:01:16.945Z,88.35
2022-10-14T22:03:48.976Z,88.25
2022-10-14T22:06:20.948Z,87.23
2022-10-14T22:08:55.645Z,87.10
2022-10-14T22:11:29.313Z,88.29
2022-10-14T22:14:02.740Z,88.98
2022-10-14T22:16:34.669Z,89.06
2022-10-14T22:19:07.897Z,88.71
2022-10-14T22:21:40.959Z,87.93
2022-10-14T22:24:12.810Z,87.37
2022-10-14T22:26:45.008Z,87.42
2022-10-14T22:29:18.352Z,87.94
2022-10-14T22:31:50.356Z,87.66
2022-10-14T22:34:22.056Z,87.41
2022-10-14T22:36:54.085Z,88.48
2022-10-14T22:39:27.056Z,88.78
2022-10-14T22:41:58.806Z,88.54
2022-10-14T22:44:30.586Z,88.98
2022-10-14T22:47:02.960Z,88.94
2022-10-14T22:49:34.512Z,88.71
2022-10-14T22:52:06.438Z,88.59
2022-10-14T22:54:38.475Z,88.35
2022-10-14T22:57:10.120Z,88.44
2022-10-14T22:59:42.103Z,88.80
2022-10-14T23:02:13.693Z,89.22
2022-10-14T23:04:45.790Z,88.92
2022-10-14T23:07:17.699Z,89.55
2022-10-14T23:09:49.325Z,90.21
2022-10-14T23:12:21.620Z,90.19
2022-10-14T23:14:53.793Z,90.64
2022-10-14T23:17:25.440Z,91.37
2022-10-14T23:19:57.344Z,90.91
2022-10-14T23:22:34.072Z,91.17
2022-10-14T23:25:07.001Z,91.95
2022-10-14T23:27:38.595Z,92.85
2022-10-14T23:30:11.669Z,93.38
2022-10-14T23:32:43.217Z,93.66
2022-10-14T23:35:14.916Z,93.20
2022-10-14T23:37:46.496Z,93.84
2022-10-14T23:40:18.630Z,93.95
2022-10-14T23:42:51.138Z,93.79
2022-10-14T23:45:22.770Z,93.63
2022-10-14T23:47:54.434Z,93.10
2022-10-14T23:50:26.432Z,92.46
2022-10-14T23:52:58.317Z,92.09
2022-10-14T23:55:30.569Z,92.64
2022-10-14T23:58:02.194Z,93.07
